King City, Oregon
Current Conditions -  °F | °C
As of 10:05 AM on Friday 31 Oct 2014 (Local Time) from KHIO Reporting Station
Overcast Overcast  
Wind Chill: 51°   Ceiling: 800
Heat Index: 51°   Visibility: 10mi
Dew Point: 50°   Wind: 8mph
Humidity: 96%   Direction: 170°S
Pressure: 29.84"   Gusts: NA
Location:  45.4077°N, 122.809°W
Report Text: KHIO 311705Z 17007KT 10SM BKN008 BKN029 OVC050 11/10 A2984 RMK AO2 T01060100
Loading
Personal Weather Stations






























Interactive Weather Map
Tropical Storm Tracking
New forecast layout! Learn more

10-Day Weather Forecast

Advertisements
Track Severe Weather on mobile